createdAt,value
2019-02-26T00:01:19.169Z,70.00
2019-02-26T00:04:01.499Z,72.70
2019-02-26T00:06:42.442Z,71.57
2019-02-26T00:09:27.436Z,76.87
2019-02-26T00:12:09.669Z,75.97
2019-02-26T00:14:56.937Z,66.00
2019-02-26T00:17:42.615Z,72.00
2019-02-26T00:20:22.234Z,71.03
2019-02-26T00:23:08.938Z,67.57
2019-02-26T00:25:51.148Z,70.47
2019-02-26T00:28:36.000Z,66.57
2019-02-26T00:31:14.603Z,71.10
2019-02-26T00:33:52.302Z,70.07
2019-02-26T00:36:35.906Z,71.30
2019-02-26T00:39:20.686Z,71.77
2019-02-26T00:42:05.204Z,81.43
2019-02-26T00:44:55.408Z,72.70
2019-02-26T00:47:38.794Z,78.43
2019-02-26T00:50:21.580Z,78.83
2019-02-26T00:53:03.439Z,83.20
2019-02-26T00:55:46.655Z,107.73
2019-02-26T00:58:32.126Z,109.50
2019-02-26T01:01:12.932Z,91.70
2019-02-26T01:03:55.214Z,97.67
2019-02-26T01:06:37.269Z,90.70
2019-02-26T01:09:19.223Z,90.63
2019-02-26T01:11:59.753Z,97.03
2019-02-26T01:14:50.242Z,109.23
2019-02-26T01:17:35.732Z,106.87
2019-02-26T01:20:24.286Z,100.20
2019-02-26T01:23:02.765Z,102.87
2019-02-26T01:25:46.785Z,99.90
2019-02-26T01:28:27.066Z,112.27
2019-02-26T01:31:07.868Z,110.77
2019-02-26T01:33:52.980Z,102.07
2019-02-26T01:36:42.518Z,101.67
2019-02-26T01:39:23.370Z,138.60
2019-02-26T01:42:04.874Z,110.63
2019-02-26T01:44:48.271Z,99.47
2019-02-26T01:47:29.884Z,92.53
2019-02-26T01:50:09.330Z,89.97
2019-02-26T01:52:56.786Z,91.07
2019-02-26T01:55:48.213Z,97.00
2019-02-26T01:58:33.638Z,91.43
2019-02-26T02:01:23.864Z,100.30
2019-02-26T02:04:10.388Z,88.10
2019-02-26T02:06:57.087Z,100.37
2019-02-26T02:09:35.895Z,93.50
2019-02-26T02:12:17.472Z,94.03
2019-02-26T02:14:58.336Z,93.90
2019-02-26T02:17:40.887Z,94.73
2019-02-26T02:20:21.636Z,91.50
2019-02-26T02:23:04.687Z,94.73
2019-02-26T02:25:50.283Z,91.20
2019-02-26T02:28:30.991Z,95.40
2019-02-26T02:31:21.929Z,96.60
2019-02-26T02:34:08.009Z,94.03
2019-02-26T02:36:49.116Z,99.27
2019-02-26T02:39:30.522Z,94.40
2019-02-26T02:42:14.117Z,106.53
2019-02-26T02:44:55.223Z,108.70
2019-02-26T02:47:47.243Z,117.37
2019-02-26T02:50:33.898Z,123.87
2019-02-26T02:53:24.032Z,102.03
2019-02-26T02:56:12.919Z,96.43
2019-02-26T02:58:55.147Z,98.30
2019-02-26T03:01:36.056Z,149.03
2019-02-26T03:04:22.086Z,168.57
2019-02-26T03:07:23.406Z,138.23
2019-02-26T03:10:08.854Z,128.47
2019-02-26T03:13:00.326Z,117.10
2019-02-26T03:15:43.157Z,111.30
2019-02-26T03:18:33.340Z,111.23
2019-02-26T03:21:19.598Z,121.40
2019-02-26T03:24:06.114Z,436.17
2019-02-26T03:26:50.188Z,288.03
2019-02-26T03:29:34.113Z,207.27
2019-02-26T03:32:16.299Z,188.13
2019-02-26T03:35:07.405Z,196.20
2019-02-26T03:37:51.427Z,170.00
2019-02-26T03:40:36.286Z,140.00
2019-02-26T03:43:17.765Z,157.87
2019-02-26T03:45:57.556Z,335.07
2019-02-26T03:48:40.913Z,404.40
2019-02-26T03:51:27.590Z,360.47
2019-02-26T03:54:07.661Z,194.30
2019-02-26T03:56:49.844Z,150.13
2019-02-26T03:59:28.433Z,173.80
2019-02-26T04:02:15.467Z,133.73
2019-02-26T04:04:57.925Z,178.20
2019-02-26T04:15:13.653Z,141.13
2019-02-26T04:17:56.481Z,250.47
2019-02-26T04:20:43.564Z,190.87
2019-02-26T04:23:24.857Z,186.50
2019-02-26T04:26:20.894Z,153.37
2019-02-26T04:29:24.267Z,190.67
2019-02-26T04:32:53.163Z,197.00
2019-02-26T04:35:57.168Z,144.80
2019-02-26T04:39:18.779Z,321.33
2019-02-26T04:42:25.209Z,163.20
2019-02-26T04:45:31.793Z,155.50
2019-02-26T04:48:26.984Z,157.33
2019-02-26T04:51:07.747Z,170.70
2019-02-26T04:53:54.175Z,221.67
2019-02-26T04:56:42.848Z,149.53
2019-02-26T04:59:26.793Z,175.00
2019-02-26T05:02:13.576Z,171.87
2019-02-26T05:04:55.972Z,136.03
2019-02-26T05:07:50.029Z,155.27
2019-02-26T05:10:34.172Z,145.10
2019-02-26T05:13:17.490Z,168.87
2019-02-26T05:16:01.626Z,150.10
2019-02-26T05:18:49.618Z,119.77
2019-02-26T05:21:37.499Z,112.77
2019-02-26T05:24:24.387Z,126.97
2019-02-26T05:27:12.323Z,116.57
2019-02-26T05:29:56.767Z,135.53
2019-02-26T05:32:45.432Z,114.77
2019-02-26T05:35:40.875Z,93.47
2019-02-26T05:38:26.566Z,92.97
2019-02-26T05:41:17.247Z,88.47
2019-02-26T05:44:04.075Z,97.37
2019-02-26T05:46:50.770Z,95.50
2019-02-26T05:49:48.090Z,106.60
2019-02-26T05:52:33.132Z,100.90
2019-02-26T05:55:16.410Z,107.00
2019-02-26T05:58:15.648Z,104.00
2019-02-26T06:01:07.302Z,97.70
2019-02-26T06:04:00.989Z,97.77
2019-02-26T06:06:43.536Z,94.17
2019-02-26T06:09:27.821Z,94.90
2019-02-26T06:12:07.253Z,102.27
2019-02-26T06:14:47.811Z,99.03
2019-02-26T06:17:31.049Z,94.57
2019-02-26T06:20:28.556Z,97.10
2019-02-26T06:23:08.320Z,97.10
2019-02-26T06:25:56.001Z,89.10
2019-02-26T06:36:04.712Z,99.47
2019-02-26T06:38:54.162Z,89.23
2019-02-26T06:41:41.943Z,93.20
2019-02-26T06:44:26.966Z,106.13
2019-02-26T06:47:09.208Z,110.83
2019-02-26T06:49:50.316Z,98.23
2019-02-26T06:52:37.093Z,104.90
2019-02-26T06:55:16.489Z,99.27
2019-02-26T06:58:01.811Z,97.23
2019-02-26T07:00:41.482Z,103.90
2019-02-26T07:03:24.181Z,95.53
2019-02-26T07:06:03.172Z,100.50
2019-02-26T07:08:46.669Z,105.10
2019-02-26T07:11:33.135Z,113.87
2019-02-26T07:14:15.439Z,111.70
2019-02-26T07:16:59.620Z,106.57
2019-02-26T07:19:40.343Z,96.40
2019-02-26T07:22:24.910Z,102.30
2019-02-26T07:25:06.440Z,102.47
2019-02-26T07:27:51.311Z,106.90
2019-02-26T07:30:35.326Z,107.73
2019-02-26T07:33:23.037Z,118.77
2019-02-26T07:36:05.230Z,126.77
2019-02-26T07:38:49.126Z,112.80
2019-02-26T07:41:30.521Z,125.07
2019-02-26T07:44:15.687Z,116.57
2019-02-26T07:46:58.845Z,109.10
2019-02-26T07:49:40.993Z,119.70
2019-02-26T07:52:26.106Z,123.30
2019-02-26T07:55:09.164Z,111.03
2019-02-26T07:57:51.221Z,107.80
2019-02-26T08:00:37.006Z,96.50
2019-02-26T08:03:13.739Z,101.70
2019-02-26T08:05:54.472Z,105.13
2019-02-26T08:08:37.874Z,112.27
2019-02-26T08:11:18.189Z,108.30
2019-02-26T08:14:01.548Z,109.50
2019-02-26T08:16:53.507Z,99.20
2019-02-26T08:19:34.420Z,99.53
2019-02-26T08:22:17.258Z,104.77
2019-02-26T08:25:00.220Z,98.83
2019-02-26T08:27:39.590Z,108.33
2019-02-26T08:30:22.920Z,133.47
2019-02-26T08:33:04.826Z,118.93
2019-02-26T08:35:55.497Z,113.00
2019-02-26T08:38:37.870Z,113.10
2019-02-26T08:41:20.235Z,110.30
2019-02-26T08:44:00.780Z,118.20
2019-02-26T08:46:44.386Z,129.07
2019-02-26T08:49:22.615Z,118.50
2019-02-26T08:52:17.019Z,133.47
2019-02-26T08:55:01.155Z,129.57
2019-02-26T08:57:43.096Z,118.80
2019-02-26T09:00:24.674Z,118.00
2019-02-26T09:03:13.276Z,117.50
2019-02-26T09:05:53.835Z,121.53
2019-02-26T09:08:35.633Z,143.67
2019-02-26T09:11:31.810Z,133.27
2019-02-26T09:14:14.142Z,129.17
2019-02-26T09:16:59.712Z,114.90
2019-02-26T09:19:38.548Z,114.77
2019-02-26T09:22:23.583Z,118.57
2019-02-26T09:25:07.620Z,120.77
2019-02-26T09:27:47.514Z,127.33
2019-02-26T09:30:28.173Z,154.00
2019-02-26T09:33:09.075Z,138.30
2019-02-26T09:35:54.457Z,124.23
2019-02-26T09:38:35.524Z,137.53
2019-02-26T09:41:14.213Z,139.10
2019-02-26T09:43:56.384Z,131.57
2019-02-26T09:46:38.819Z,147.23
2019-02-26T09:49:20.467Z,127.47
2019-02-26T09:52:06.687Z,126.00
2019-02-26T09:54:55.087Z,132.90
2019-02-26T09:57:36.706Z,126.50
2019-02-26T10:00:26.104Z,121.07
2019-02-26T10:03:06.157Z,117.17
2019-02-26T10:05:50.065Z,127.63
2019-02-26T10:08:31.612Z,131.60
2019-02-26T10:11:12.300Z,125.63
2019-02-26T10:13:54.815Z,126.87
2019-02-26T10:16:36.207Z,124.97
2019-02-26T10:19:22.770Z,127.10
2019-02-26T10:22:06.061Z,128.30
2019-02-26T10:24:50.223Z,132.37
2019-02-26T10:27:35.809Z,135.87
2019-02-26T10:30:17.800Z,127.97
2019-02-26T10:33:01.955Z,132.00
2019-02-26T10:35:47.970Z,131.43
2019-02-26T10:38:39.849Z,129.97
2019-02-26T10:41:21.140Z,150.73
2019-02-26T10:44:09.507Z,151.97
2019-02-26T10:46:58.226Z,126.60
2019-02-26T10:49:40.133Z,125.50
2019-02-26T10:52:26.346Z,128.27
2019-02-26T10:55:04.627Z,138.03
2019-02-26T10:57:47.923Z,125.63
2019-02-26T11:00:33.800Z,137.53
2019-02-26T11:03:20.267Z,138.70
2019-02-26T11:06:04.676Z,130.47
2019-02-26T11:08:47.565Z,133.17
2019-02-26T11:11:30.603Z,129.13
2019-02-26T11:14:14.264Z,128.10
2019-02-26T11:17:01.524Z,135.60
2019-02-26T11:19:43.073Z,139.00
2019-02-26T11:22:25.200Z,130.30
2019-02-26T11:25:09.516Z,131.30
2019-02-26T11:27:56.391Z,228.20
2019-02-26T11:30:46.543Z,611.13
2019-02-26T11:33:24.319Z,558.07
2019-02-26T11:36:10.593Z,428.60
2019-02-26T11:38:50.089Z,262.03
2019-02-26T11:41:36.076Z,218.97
2019-02-26T11:44:23.412Z,182.53
2019-02-26T11:47:11.135Z,161.57
2019-02-26T11:50:06.958Z,146.43
2019-02-26T11:52:54.972Z,171.13
2019-02-26T11:55:46.758Z,154.23
2019-02-26T11:58:28.131Z,151.30
2019-02-26T12:01:18.332Z,206.80
2019-02-26T12:04:03.590Z,211.73
2019-02-26T12:06:45.268Z,211.50
2019-02-26T12:09:29.242Z,164.70
2019-02-26T12:12:11.644Z,140.97
2019-02-26T12:15:09.549Z,131.77
2019-02-26T12:18:12.664Z,139.80
2019-02-26T12:20:51.255Z,130.13
2019-02-26T12:26:54.609Z,271.90
2019-02-26T12:35:45.481Z,136.77
2019-02-26T12:38:36.783Z,148.23
2019-02-26T12:41:27.178Z,138.43
2019-02-26T12:44:18.428Z,149.60
2019-02-26T12:47:00.447Z,150.17
2019-02-26T12:49:51.028Z,153.83
2019-02-26T12:52:42.118Z,145.77
2019-02-26T12:55:22.328Z,148.70
2019-02-26T12:58:17.657Z,149.77
2019-02-26T13:04:12.905Z,144.67
2019-02-26T13:06:56.774Z,153.37
2019-02-26T13:10:03.373Z,135.00
2019-02-26T13:13:07.221Z,133.13
2019-02-26T13:16:01.518Z,138.90
2019-02-26T13:19:05.286Z,136.10
2019-02-26T13:22:06.637Z,138.63
2019-02-26T13:25:00.266Z,150.27
2019-02-26T13:27:51.857Z,158.03
2019-02-26T13:30:36.039Z,147.20
2019-02-26T13:33:42.025Z,157.30
2019-02-26T13:39:45.405Z,148.73
2019-02-26T13:45:42.941Z,145.37
2019-02-26T13:48:37.123Z,145.30
2019-02-26T13:51:40.218Z,150.03
2019-02-26T13:54:30.427Z,138.23
2019-02-26T13:57:15.041Z,145.67
2019-02-26T14:00:26.640Z,138.73
2019-02-26T14:03:22.566Z,133.97
2019-02-26T14:06:18.684Z,142.33
2019-02-26T14:09:03.364Z,136.07
2019-02-26T14:11:47.025Z,141.33
2019-02-26T14:14:41.042Z,137.67
2019-02-26T14:17:40.727Z,142.60
2019-02-26T14:20:34.900Z,139.10
2019-02-26T14:23:35.109Z,145.57
2019-02-26T14:26:29.174Z,187.40
2019-02-26T14:30:02.280Z,156.83
2019-02-26T14:32:59.117Z,145.67
2019-02-26T14:35:53.047Z,220.37
2019-02-26T14:38:43.632Z,159.20
2019-02-26T14:44:44.002Z,141.97
2019-02-26T14:47:35.939Z,141.37
2019-02-26T14:50:18.701Z,150.17
2019-02-26T14:53:14.168Z,144.50
2019-02-26T14:55:56.393Z,269.17
2019-02-26T14:58:59.019Z,205.10
2019-02-26T15:01:54.148Z,148.13
2019-02-26T15:04:38.460Z,139.07
2019-02-26T15:07:42.302Z,134.23
2019-02-26T15:10:33.560Z,135.23
2019-02-26T15:16:42.385Z,145.17
2019-02-26T15:19:50.315Z,132.27
2019-02-26T15:22:56.490Z,136.57
2019-02-26T15:25:38.918Z,133.30
2019-02-26T15:31:40.274Z,144.73
2019-02-26T15:34:27.821Z,130.83
2019-02-26T15:37:30.295Z,144.57
2019-02-26T15:40:11.371Z,142.83
2019-02-26T15:43:09.725Z,143.93
2019-02-26T15:46:06.341Z,142.90
2019-02-26T15:48:52.263Z,133.67
2019-02-26T15:51:36.452Z,133.13
2019-02-26T15:54:25.315Z,133.20
2019-02-26T15:57:20.558Z,130.23
2019-02-26T16:00:07.976Z,129.73
2019-02-26T16:02:51.291Z,132.17
2019-02-26T16:05:51.712Z,135.43
2019-02-26T16:08:56.437Z,135.13
2019-02-26T16:11:38.123Z,137.00
2019-02-26T16:14:40.338Z,139.63
2019-02-26T16:17:24.212Z,137.43
2019-02-26T16:20:09.511Z,142.77
2019-02-26T16:22:54.829Z,147.30
2019-02-26T16:25:52.417Z,139.83
2019-02-26T16:28:47.137Z,137.30
2019-02-26T16:31:34.016Z,136.93
2019-02-26T16:34:29.619Z,152.53
2019-02-26T16:37:16.918Z,143.47
2019-02-26T16:40:07.135Z,139.20
2019-02-26T16:42:54.970Z,135.20
2019-02-26T16:45:36.569Z,123.87
2019-02-26T16:48:26.371Z,125.60
2019-02-26T16:51:22.407Z,121.63
2019-02-26T16:54:07.425Z,122.77
2019-02-26T16:56:55.152Z,114.67
2019-02-26T16:59:40.846Z,107.93
2019-02-26T17:02:32.565Z,109.33
2019-02-26T17:05:20.493Z,107.30
2019-02-26T17:08:05.156Z,106.17
2019-02-26T17:10:52.569Z,98.77
2019-02-26T17:13:34.797Z,106.03
2019-02-26T17:16:20.995Z,105.03
2019-02-26T17:19:16.760Z,95.87
2019-02-26T17:25:00.763Z,91.83
2019-02-26T17:27:41.995Z,82.97
2019-02-26T17:30:25.871Z,76.63
2019-02-26T17:33:13.764Z,73.77
2019-02-26T17:35:59.607Z,77.40
2019-02-26T17:38:45.929Z,69.63
2019-02-26T17:41:28.848Z,73.20
2019-02-26T17:44:08.874Z,69.27
2019-02-26T17:46:57.382Z,69.23
2019-02-26T17:49:40.797Z,75.73
2019-02-26T17:52:24.466Z,71.47
2019-02-26T17:55:21.719Z,81.00
2019-02-26T17:58:09.828Z,74.50
2019-02-26T18:00:47.751Z,77.30
2019-02-26T18:03:31.845Z,78.53
2019-02-26T18:06:14.503Z,80.93
2019-02-26T18:09:01.120Z,79.40
2019-02-26T18:11:43.880Z,98.20
2019-02-26T18:14:23.143Z,86.90
2019-02-26T18:17:04.166Z,80.47
2019-02-26T18:19:49.385Z,90.53
2019-02-26T18:22:42.388Z,97.43
2019-02-26T18:25:18.921Z,102.03
2019-02-26T18:28:08.585Z,102.27
2019-02-26T18:30:45.452Z,100.90
2019-02-26T18:33:28.631Z,97.10
2019-02-26T18:36:16.036Z,93.40
2019-02-26T18:38:55.745Z,94.90
2019-02-26T18:41:50.415Z,94.80
2019-02-26T18:44:35.233Z,111.37
2019-02-26T18:47:28.183Z,99.63
2019-02-26T18:50:10.198Z,86.80
2019-02-26T18:52:51.843Z,87.53
2019-02-26T18:55:32.657Z,86.00
2019-02-26T18:58:10.937Z,90.90
2019-02-26T19:00:48.354Z,88.47
2019-02-26T19:03:34.014Z,86.27
2019-02-26T19:06:16.462Z,89.50
2019-02-26T19:08:59.279Z,89.43
2019-02-26T19:11:45.082Z,97.13
2019-02-26T19:14:28.917Z,90.43
2019-02-26T19:17:09.036Z,90.43
2019-02-26T19:19:56.014Z,93.63
2019-02-26T19:22:38.878Z,87.23
2019-02-26T19:25:18.459Z,98.03
2019-02-26T19:27:57.067Z,84.33
2019-02-26T19:30:37.924Z,92.30
2019-02-26T19:33:18.752Z,85.93
2019-02-26T19:36:02.940Z,90.60
2019-02-26T19:38:43.463Z,87.40
2019-02-26T19:41:26.326Z,79.87
2019-02-26T19:44:08.906Z,83.97
2019-02-26T19:46:50.167Z,93.00
2019-02-26T19:49:34.081Z,85.90
2019-02-26T19:52:16.066Z,93.53
2019-02-26T19:54:58.211Z,86.67
2019-02-26T19:57:39.229Z,94.13
2019-02-26T20:00:23.483Z,92.57
2019-02-26T20:03:05.493Z,87.93
2019-02-26T20:05:46.608Z,92.60
2019-02-26T20:08:28.705Z,88.30
2019-02-26T20:11:13.931Z,79.30
2019-02-26T20:14:04.660Z,88.93
2019-02-26T20:16:46.672Z,84.13
2019-02-26T20:19:24.768Z,81.27
2019-02-26T20:22:04.937Z,83.30
2019-02-26T20:24:48.244Z,73.13
2019-02-26T20:27:30.580Z,87.00
2019-02-26T20:30:12.354Z,73.90
2019-02-26T20:32:53.201Z,82.10
2019-02-26T20:35:35.580Z,76.67
2019-02-26T20:38:17.063Z,73.63
2019-02-26T20:40:59.405Z,74.20
2019-02-26T20:43:39.909Z,78.40
2019-02-26T20:46:20.474Z,72.77
2019-02-26T20:49:02.206Z,69.40
2019-02-26T20:51:46.105Z,68.30
2019-02-26T20:54:29.375Z,68.10
2019-02-26T20:57:08.814Z,64.47
2019-02-26T20:59:51.981Z,67.37
2019-02-26T21:02:33.617Z,69.77
2019-02-26T21:05:12.466Z,70.07
2019-02-26T21:07:52.979Z,67.60
2019-02-26T21:10:33.309Z,64.83
2019-02-26T21:13:13.442Z,70.53
2019-02-26T21:15:54.194Z,65.73
2019-02-26T21:18:32.788Z,67.20
2019-02-26T21:21:16.321Z,64.33
2019-02-26T21:24:00.464Z,69.13
2019-02-26T21:26:39.911Z,73.20
2019-02-26T21:29:20.114Z,70.20
2019-02-26T21:32:02.982Z,66.67
2019-02-26T21:34:47.606Z,65.93
2019-02-26T21:37:32.634Z,66.20
2019-02-26T21:40:10.504Z,64.17
2019-02-26T21:42:52.333Z,69.07
2019-02-26T21:45:33.307Z,66.10
2019-02-26T21:48:15.708Z,64.77
2019-02-26T21:50:58.052Z,67.03
2019-02-26T21:53:42.151Z,65.87
2019-02-26T21:56:24.635Z,74.07
2019-02-26T21:59:05.137Z,63.83
2019-02-26T22:01:46.778Z,69.33
2019-02-26T22:04:31.699Z,67.13
2019-02-26T22:07:12.410Z,68.50
2019-02-26T22:09:59.249Z,69.90
2019-02-26T22:12:42.709Z,67.07
2019-02-26T22:15:21.713Z,67.43
2019-02-26T22:18:01.941Z,69.80
2019-02-26T22:20:45.993Z,67.60
2019-02-26T22:23:29.237Z,66.80
2019-02-26T22:26:12.104Z,68.03
2019-02-26T22:28:56.230Z,68.63
2019-02-26T22:31:37.042Z,74.83
2019-02-26T22:34:19.041Z,71.03
2019-02-26T22:37:07.027Z,70.37
2019-02-26T22:39:43.036Z,70.37
2019-02-26T22:42:22.516Z,66.87
2019-02-26T22:45:07.989Z,71.93
2019-02-26T22:48:13.469Z,67.33
2019-02-26T22:50:50.214Z,72.70
2019-02-26T22:53:36.434Z,67.60
2019-02-26T22:56:17.975Z,66.93
2019-02-26T22:58:57.286Z,71.83
2019-02-26T23:01:38.523Z,70.63
2019-02-26T23:04:24.131Z,70.37
2019-02-26T23:07:05.128Z,73.27
2019-02-26T23:09:44.356Z,80.40
2019-02-26T23:12:29.575Z,68.93
2019-02-26T23:15:12.009Z,69.90
2019-02-26T23:17:58.205Z,72.47
2019-02-26T23:20:42.570Z,63.90
2019-02-26T23:23:22.418Z,73.23
2019-02-26T23:26:02.480Z,71.17
2019-02-26T23:28:44.793Z,66.03
2019-02-26T23:31:26.567Z,71.30
2019-02-26T23:34:08.313Z,67.23
2019-02-26T23:36:49.552Z,66.50
2019-02-26T23:39:31.613Z,72.03
2019-02-26T23:42:13.364Z,69.37
2019-02-26T23:44:54.330Z,70.30
2019-02-26T23:47:35.140Z,67.87
2019-02-26T23:50:20.057Z,64.30
2019-02-26T23:53:00.921Z,64.60
2019-02-26T23:55:47.257Z,65.93
2019-02-26T23:58:30.726Z,107.10
